Time;durP1;ratioP1;P1;durP2;ratioP2;P2;SDS_P1;SDS_P2;PMS_P1;PMS_P2;Temp;Humidity;BMP_temperature;BMP_pressure;BME280_temperature;BME280_humidity;BME280_pressure;Samples;Min_cycle;Max_cycle;Signal;HPM_P1;HPM_P2
2021/01/02 00:01:15;;;;;;;49.00;19.42;;;;;;;-1.78;98.18;98380.53;4957950;28;21403;-71
2021/01/02 00:04:20;;;;;;;102.03;19.00;;;;;;;-1.78;98.36;98372.91;4958271;28;20031;-71
2021/01/02 00:07:23;;;;;;;82.53;20.10;;;;;;;-1.69;98.42;98375.66;4957725;28;20027;-71
2021/01/02 00:09:55;;;;;;;105.15;19.48;;;;;;;-1.64;98.01;98381.72;4958244;28;20034;-71
2021/01/02 00:12:54;;;;;;;148.68;22.90;;;;;;;-1.60;97.97;98378.41;4958085;28;20074;-71
2021/01/02 00:15:30;;;;;;;183.17;22.67;;;;;;;-1.73;97.80;98374.75;4958531;28;20082;-71
2021/01/02 00:18:20;;;;;;;114.75;19.92;;;;;;;-1.81;97.68;98376.22;4958332;28;20034;-71
2021/01/02 00:21:16;;;;;;;111.80;18.05;;;;;;;-1.85;97.71;98379.50;4958222;28;20035;-71
2021/01/02 00:24:00;;;;;;;150.98;18.77;;;;;;;-1.96;97.73;98376.72;4958570;28;21393;-71
2021/01/02 00:26:44;;;;;;;57.05;15.45;;;;;;;-1.72;97.92;98375.59;4958237;28;20037;-71
2021/01/02 00:29:42;;;;;;;40.53;15.43;;;;;;;-1.74;97.79;98372.13;4958115;28;21032;-71
2021/01/02 00:32:45;;;;;;;152.52;17.88;;;;;;;-1.81;97.25;98374.53;4957995;28;20026;-72
2021/01/02 00:35:21;;;;;;;103.97;17.75;;;;;;;-1.93;96.85;98371.72;4958246;28;20053;-71
2021/01/02 00:37:52;;;;;;;44.80;15.18;;;;;;;-1.83;97.39;98373.66;4964036;28;20027;-72
2021/01/02 00:40:20;;;;;;;60.03;17.13;;;;;;;-1.92;97.50;98372.56;4971986;28;20030;-69
2021/01/02 00:42:48;;;;;;;80.78;16.92;;;;;;;-1.83;97.68;98376.19;4991007;28;20488;-69
2021/01/02 00:45:22;;;;;;;40.42;15.75;;;;;;;-1.72;97.24;98366.28;4976303;28;20026;-70
2021/01/02 00:47:48;;;;;;;88.50;16.25;;;;;;;-1.82;97.18;98369.44;4974988;28;20023;-70
2021/01/02 00:50:15;;;;;;;33.78;15.18;;;;;;;-1.69;97.23;98365.50;4976035;28;20425;-70
2021/01/02 00:52:47;;;;;;;101.15;15.98;;;;;;;-1.78;96.75;98375.44;4974668;28;20121;-70
2021/01/02 00:55:13;;;;;;;81.78;15.77;;;;;;;-2.02;96.75;98375.72;4976155;28;20551;-70
2021/01/02 00:58:20;;;;;;;77.00;14.05;;;;;;;-2.04;97.08;98379.88;4975932;28;20035;-70
2021/01/02 08:00:49;;;;;;;19.00;10.82;;;;;;;-0.90;91.96;98438.47;5856858;22;20049;-73
2021/01/02 08:03:16;;;;;;;18.27;12.10;;;;;;;-1.01;91.67;98439.94;5012313;28;20116;-73
2021/01/02 08:05:43;;;;;;;17.75;11.75;;;;;;;-0.92;91.89;98442.66;5011965;28;20391;-73
2021/01/02 08:08:08;;;;;;;19.73;11.82;;;;;;;-1.09;92.46;98441.41;5012142;28;20489;-73
2021/01/02 08:10:33;;;;;;;18.85;11.65;;;;;;;-1.31;92.52;98451.13;5011918;28;20030;-73
2021/01/02 08:13:01;;;;;;;19.48;12.05;;;;;;;-1.22;92.69;98434.34;5012012;28;20081;-73
2021/01/02 08:15:30;;;;;;;19.40;11.85;;;;;;;-1.14;92.38;98431.16;5012541;28;20026;-72
2021/01/02 08:18:16;;;;;;;20.07;12.10;;;;;;;-1.01;92.17;98433.97;5011910;28;20610;-72
2021/01/02 08:20:41;;;;;;;18.42;11.25;;;;;;;-1.07;91.99;98427.06;5011493;28;20046;-72
2021/01/02 08:23:13;;;;;;;21.45;14.52;;;;;;;-1.01;91.65;98423.81;5011916;28;20405;-72
2021/01/02 08:25:39;;;;;;;21.00;12.57;;;;;;;-0.98;91.80;98427.25;5012085;28;20434;-72
2021/01/02 08:28:05;;;;;;;19.80;12.70;;;;;;;-0.88;91.72;98421.53;5011853;28;20022;-72
2021/01/02 08:30:31;;;;;;;20.63;12.85;;;;;;;-0.82;92.72;98434.41;5011889;28;20026;-72
2021/01/02 08:32:59;;;;;;;21.05;12.77;;;;;;;-0.82;92.01;98424.25;5011562;28;20434;-72
2021/01/02 08:35:34;;;;;;;21.55;14.00;;;;;;;-0.76;92.64;98432.81;5010889;28;20096;-72
2021/01/02 08:38:07;;;;;;;21.95;13.68;;;;;;;-0.81;91.94;98428.50;5011830;28;20021;-72
2021/01/02 08:40:39;;;;;;;22.52;13.68;;;;;;;-0.72;92.66;98432.91;5010546;28;20034;-72
2021/01/02 08:43:06;;;;;;;23.55;14.40;;;;;;;-0.60;92.00;98432.31;5011644;28;20030;-72
2021/01/02 08:45:39;;;;;;;21.38;13.30;;;;;;;-0.60;93.08;98432.31;5011759;28;20049;-72
2021/01/02 08:48:08;;;;;;;19.05;12.43;;;;;;;-0.59;92.77;98439.09;5011681;28;20017;-72
2021/01/02 08:50:34;;;;;;;22.07;13.23;;;;;;;-0.57;92.55;98442.56;5011803;28;20474;-73
2021/01/02 08:53:00;;;;;;;19.67;12.60;;;;;;;-0.56;92.35;98441.72;5011510;28;20021;-74
2021/01/02 08:55:28;;;;;;;19.48;12.95;;;;;;;-0.41;92.14;98444.56;5011612;28;20367;-70
2021/01/02 08:57:54;;;;;;;20.10;12.48;;;;;;;-0.28;91.05;98446.53;5011394;28;20037;-75
2021/01/02 09:00:30;;;;;;;19.33;12.20;;;;;;;-0.30;90.23;98438.00;5011473;28;20462;-73
2021/01/02 09:02:56;;;;;;;19.63;12.73;;;;;;;-0.20;91.24;98448.34;5013980;28;20490;-73
2021/01/02 09:05:29;;;;;;;20.17;12.60;;;;;;;-0.14;90.14;98439.16;5015287;28;20084;-72
2021/01/02 09:08:06;;;;;;;19.98;12.07;;;;;;;-0.11;88.86;98438.34;5014861;28;20030;-72
2021/01/02 09:10:37;;;;;;;20.10;12.15;;;;;;;-0.15;89.38;98441.66;5014945;28;20041;-73
2021/01/02 09:13:08;;;;;;;18.15;12.52;;;;;;;-0.18;88.95;98441.63;5014795;28;20274;-72
2021/01/02 09:15:47;;;;;;;20.63;12.52;;;;;;;-0.44;90.50;98447.03;5014923;28;20092;-73
2021/01/02 09:18:15;;;;;;;23.13;13.55;;;;;;;-0.41;90.73;98451.34;5014666;28;20207;-73
2021/01/02 09:20:41;;;;;;;27.52;15.85;;;;;;;-0.26;90.96;98454.19;5014566;28;20034;-72
2021/01/02 09:23:08;;;;;;;23.02;13.85;;;;;;;-0.20;91.14;98443.25;5005813;28;20453;-72
2021/01/02 09:25:34;;;;;;;21.45;14.10;;;;;;;-0.18;90.43;98441.63;5006051;28;20030;-72
2021/01/02 09:28:14;;;;;;;20.02;13.13;;;;;;;-0.03;90.25;98441.91;5005031;28;20141;-72
2021/01/02 09:30:40;;;;;;;20.33;13.25;;;;;;;0.14;89.88;98435.41;5005834;28;20034;-73
2021/01/02 09:33:06;;;;;;;17.25;11.57;;;;;;;-0.06;88.76;98444.38;5005693;28;20029;-72
2021/01/02 09:35:31;;;;;;;18.55;11.30;;;;;;;0.05;90.14;98445.47;5003678;28;20036;-72
2021/01/02 09:37:57;;;;;;;22.90;13.45;;;;;;;0.29;88.92;98433.97;5005505;28;20033;-73
2021/01/02 09:40:23;;;;;;;18.92;11.40;;;;;;;0.53;86.54;98434.38;5005379;28;20549;-72
2021/01/02 09:42:48;;;;;;;17.67;12.05;;;;;;;0.60;86.36;98441.28;5005157;28;20025;-72
2021/01/02 09:45:14;;;;;;;19.02;12.68;;;;;;;0.76;85.64;98442.38;5005809;28;20107;-72
2021/01/02 09:47:40;;;;;;;27.42;15.50;;;;;;;0.80;86.31;98448.41;5005470;28;20041;-72
2021/01/02 09:50:06;;;;;;;17.77;12.50;;;;;;;0.84;85.04;98455.25;5005472;28;20386;-72
2021/01/02 09:52:32;;;;;;;20.15;12.23;;;;;;;1.16;83.76;98454.06;5005302;28;20723;-72
2021/01/02 09:54:57;;;;;;;15.00;10.90;;;;;;;1.17;83.40;98463.41;5005480;28;20030;-72
2021/01/02 09:57:22;;;;;;;17.92;12.18;;;;;;;1.34;83.41;98461.06;5005432;28;20030;-72
2021/01/02 09:59:48;;;;;;;18.13;11.73;;;;;;;1.59;82.92;98464.81;5005253;28;20022;-73
2021/01/02 10:02:13;;;;;;;15.90;11.02;;;;;;;1.86;83.85;98463.44;5005069;28;20116;-72
2021/01/02 10:04:44;;;;;;;16.25;11.38;;;;;;;1.68;81.98;98457.25;5003888;28;20034;-72
2021/01/02 10:07:09;;;;;;;17.83;11.68;;;;;;;1.83;80.83;98453.16;5005296;28;20038;-73
2021/01/02 10:09:42;;;;;;;17.58;11.90;;;;;;;1.54;82.38;98461.34;5005223;28;20033;-72
2021/01/02 10:12:08;;;;;;;19.17;12.25;;;;;;;1.27;84.37;98451.63;5003609;28;20033;-73
2021/01/02 10:14:33;;;;;;;19.63;12.55;;;;;;;1.45;83.58;98444.22;5004954;28;20025;-73
2021/01/02 10:16:59;;;;;;;18.83;12.27;;;;;;;1.48;83.00;98445.94;5017284;28;20033;-73
2021/01/02 10:19:24;;;;;;;18.60;13.13;;;;;;;1.46;83.86;98450.19;5004820;28;20029;-72
2021/01/02 10:21:50;;;;;;;19.25;13.00;;;;;;;1.47;82.66;98449.34;5004749;28;20410;-73
2021/01/02 10:24:15;;;;;;;19.02;12.25;;;;;;;1.38;83.24;98433.91;4997786;28;20092;-73
2021/01/02 10:26:40;;;;;;;20.10;12.95;;;;;;;1.33;82.67;98438.09;5002558;28;20495;-73
2021/01/02 10:29:05;;;;;;;21.58;14.10;;;;;;;1.26;83.06;98438.03;5004544;28;20030;-73
2021/01/02 10:31:31;;;;;;;24.42;15.18;;;;;;;1.41;83.81;98436.50;5004303;28;20443;-73
2021/01/02 10:33:56;;;;;;;25.17;14.05;;;;;;;1.53;83.56;98429.84;5004925;28;20038;-73
2021/01/02 10:36:22;;;;;;;40.78;22.80;;;;;;;1.80;82.15;98421.66;5004444;28;20030;-73
2021/01/02 10:38:47;;;;;;;29.55;18.08;;;;;;;1.95;81.94;98417.56;5004482;28;20026;-73
2021/01/02 10:41:16;;;;;;;24.48;14.35;;;;;;;1.87;82.21;98419.16;5004405;28;20030;-73
2021/01/02 10:43:41;;;;;;;19.95;13.60;;;;;;;2.13;80.13;98404.97;5004426;28;20375;-73
2021/01/02 10:46:07;;;;;;;20.50;14.43;;;;;;;2.00;80.04;98403.97;5004277;28;20033;-73
2021/01/02 10:48:32;;;;;;;21.85;14.38;;;;;;;1.92;80.52;98402.19;5004294;28;20033;-73
2021/01/02 10:50:58;;;;;;;21.25;14.05;;;;;;;1.84;81.67;98408.91;5003994;28;20041;-73
2021/01/02 10:53:23;;;;;;;23.25;14.02;;;;;;;1.97;81.64;98400.53;5004282;28;20037;-72
2021/01/02 10:55:48;;;;;;;20.92;13.27;;;;;;;1.83;81.25;98402.09;5003030;28;20175;-73
2021/01/02 10:58:14;;;;;;;22.83;14.38;;;;;;;2.06;80.43;98398.06;5003845;28;20032;-73
2021/01/02 11:00:40;;;;;;;22.85;14.48;;;;;;;2.09;81.27;98395.56;5003901;28;20061;-73
2021/01/02 11:03:05;;;;;;;20.92;14.35;;;;;;;1.72;82.82;98394.31;5002825;28;20033;-73
2021/01/02 11:05:31;;;;;;;20.85;13.93;;;;;;;1.81;83.57;98384.19;5004097;28;20032;-73
2021/01/02 11:07:56;;;;;;;26.55;16.52;;;;;;;2.12;83.17;98380.22;5003723;28;20084;-73
2021/01/02 11:10:22;;;;;;;22.88;15.32;;;;;;;2.39;80.13;98371.09;5003956;28;20084;-73
2021/01/02 11:12:47;;;;;;;24.70;15.95;;;;;;;2.26;79.94;98373.53;5003715;28;20438;-73
2021/01/02 11:15:13;;;;;;;27.70;17.50;;;;;;;2.08;80.63;98370.84;5002984;28;20040;-73
2021/01/02 11:17:39;;;;;;;25.10;16.30;;;;;;;1.86;82.42;98361.25;5002759;28;20402;-73
2021/01/02 11:20:06;;;;;;;26.17;16.58;;;;;;;1.75;82.21;98356.91;5002796;28;20022;-71
2021/01/02 11:22:32;;;;;;;25.52;16.35;;;;;;;1.58;83.43;98350.75;5001604;28;20034;-73
2021/01/02 11:24:57;;;;;;;54.92;29.98;;;;;;;1.71;83.78;98341.53;5000647;28;20034;-72
2021/01/02 11:27:23;;;;;;;25.83;16.67;;;;;;;1.55;83.35;98340.53;4995224;28;20483;-72
2021/01/02 11:29:49;;;;;;;26.45;15.90;;;;;;;1.46;85.79;98350.63;4998780;28;20049;-73
2021/01/02 11:32:14;;;;;;;27.02;18.38;;;;;;;1.67;83.18;98350.00;4999035;28;20025;-72
2021/01/02 11:34:40;;;;;;;24.00;16.10;;;;;;;1.41;84.14;98352.28;4999008;28;20085;-72
2021/01/02 11:37:07;;;;;;;26.92;16.38;;;;;;;1.46;84.85;98355.75;5001166;28;20026;-72
2021/01/02 11:39:33;;;;;;;27.58;16.73;;;;;;;1.52;84.61;98360.91;4998528;28;20123;-72
2021/01/02 11:42:03;;;;;;;23.30;15.07;;;;;;;1.51;83.36;98365.16;4995642;28;20121;-72
2021/01/02 11:44:29;;;;;;;22.35;14.68;;;;;;;1.54;83.07;98369.44;5000242;28;20037;-72
2021/01/02 11:46:56;;;;;;;21.88;14.35;;;;;;;1.69;82.59;98359.41;5003221;28;20030;-72
2021/01/02 11:49:25;;;;;;;24.17;14.77;;;;;;;1.70;83.28;98363.66;4998317;28;20029;-72
2021/01/02 11:51:53;;;;;;;24.92;15.32;;;;;;;1.68;84.19;98352.56;4998908;28;20030;-72
2021/01/02 11:54:19;;;;;;;26.20;14.90;;;;;;;1.71;83.57;98347.50;4997223;28;20041;-72
2021/01/02 11:56:45;;;;;;;22.17;14.90;;;;;;;1.69;82.92;98341.53;5002628;28;20109;-72
2021/01/02 11:59:12;;;;;;;25.23;15.85;;;;;;;1.83;83.27;98341.63;4996492;28;20032;-72
2021/01/02 12:01:40;;;;;;;21.50;15.02;;;;;;;1.96;83.61;98338.38;5000591;28;20059;-72
2021/01/02 12:04:11;;;;;;;30.05;16.88;;;;;;;1.96;82.71;98337.50;4999779;28;20034;-72
2021/01/02 12:06:37;;;;;;;22.90;15.77;;;;;;;1.85;85.02;98334.88;5003397;28;20026;-72
2021/01/02 12:09:05;;;;;;;29.50;18.05;;;;;;;2.01;84.07;98346.06;4997744;28;20078;-72
2021/01/02 12:11:33;;;;;;;32.25;20.70;;;;;;;2.17;82.25;98342.78;5002426;28;20483;-72
2021/01/02 12:13:59;;;;;;;30.35;20.73;;;;;;;2.18;83.41;98339.44;4999273;28;20564;-72
2021/01/02 12:16:39;;;;;;;30.13;20.13;;;;;;;2.18;82.42;98334.31;5001833;28;20033;-72
2021/01/02 12:19:08;;;;;;;33.08;19.95;;;;;;;2.21;83.13;98336.88;4997656;28;20029;-72
2021/01/02 12:21:34;;;;;;;28.97;19.73;;;;;;;2.18;83.21;98334.31;5002908;28;20034;-72
2021/01/02 12:23:59;;;;;;;29.65;19.02;;;;;;;2.19;84.09;98336.00;5002565;28;20033;-73
2021/01/02 12:26:26;;;;;;;25.98;17.40;;;;;;;2.31;82.39;98323.31;5000616;28;20026;-72
2021/01/02 12:28:51;;;;;;;28.35;16.55;;;;;;;2.18;80.93;98318.97;4998349;28;20022;-72
2021/01/02 12:31:20;;;;;;;24.70;15.05;;;;;;;2.29;80.07;98316.50;5001927;28;20446;-72
2021/01/02 12:33:47;;;;;;;22.57;13.60;;;;;;;1.53;81.41;98309.00;4998616;28;20505;-72
2021/01/02 12:36:14;;;;;;;25.55;14.75;;;;;;;1.80;80.81;98310.97;5002724;28;20588;-72
2021/01/02 12:38:40;;;;;;;26.77;15.30;;;;;;;1.67;81.47;98302.34;5005477;28;20040;-72
2021/01/02 12:41:15;;;;;;;23.50;14.90;;;;;;;1.88;81.04;98294.00;5006107;28;20139;-72
2021/01/02 12:43:43;;;;;;;26.45;14.20;;;;;;;1.80;80.55;98286.31;5005317;28;20034;-72
2021/01/02 12:46:11;;;;;;;25.13;14.93;;;;;;;1.77;82.27;98291.38;5006395;28;20045;-72
2021/01/02 12:48:36;;;;;;;25.73;15.35;;;;;;;1.80;81.83;98291.41;5002285;28;20395;-72
2021/01/02 12:51:03;;;;;;;25.23;14.82;;;;;;;1.64;82.41;98284.44;5002729;28;20036;-72
2021/01/02 12:53:28;;;;;;;23.52;14.05;;;;;;;1.83;80.88;98280.34;5006378;28;20044;-73
2021/01/02 12:55:53;;;;;;;25.75;15.63;;;;;;;1.94;80.94;98277.91;5005497;28;20494;-72
2021/01/02 12:58:19;;;;;;;23.90;15.93;;;;;;;1.65;81.71;98278.50;5003297;28;20029;-73
2021/01/02 13:00:44;;;;;;;24.25;13.65;;;;;;;1.78;82.16;98277.75;5002736;28;20038;-73
2021/01/02 13:03:09;;;;;;;20.42;13.52;;;;;;;1.88;80.55;98277.84;5002225;28;20213;-73
2021/01/02 13:05:35;;;;;;;25.30;13.80;;;;;;;2.05;81.03;98276.28;5005763;28;20041;-71
2021/01/02 13:08:00;;;;;;;23.38;13.45;;;;;;;2.00;80.53;98280.50;5003987;28;20025;-71
2021/01/02 13:10:25;;;;;;;22.77;13.10;;;;;;;2.06;78.71;98283.09;5003503;28;20137;-72
2021/01/02 13:12:51;;;;;;;20.30;13.63;;;;;;;2.16;80.05;98279.75;5000956;28;20123;-72
2021/01/02 13:15:16;;;;;;;18.95;12.05;;;;;;;2.25;78.69;98279.81;5005693;28;20087;-72
2021/01/02 13:17:41;;;;;;;19.90;12.18;;;;;;;2.30;79.49;98278.16;5005754;28;20030;-72
2021/01/02 13:20:07;;;;;;;20.92;13.05;;;;;;;1.84;79.84;98273.53;5004464;28;20022;-72
2021/01/02 13:22:33;;;;;;;21.00;12.98;;;;;;;1.74;78.82;98270.03;5002995;28;20402;-72
2021/01/02 13:24:58;;;;;;;21.33;13.88;;;;;;;1.99;79.61;98282.19;5001850;28;20073;-72
2021/01/02 13:27:23;;;;;;;20.40;12.75;;;;;;;2.13;80.05;98274.66;5004848;28;20040;-72
2021/01/02 13:29:53;;;;;;;20.33;11.77;;;;;;;2.16;77.08;98279.75;5005749;28;20026;-72
2021/01/02 13:32:19;;;;;;;18.50;10.90;;;;;;;2.22;77.97;98279.78;4999308;28;20036;-72
2021/01/02 13:34:45;;;;;;;19.85;11.20;;;;;;;2.38;75.83;98282.47;5005207;28;20042;-72
2021/01/02 13:37:49;;;;;;;18.98;10.95;;;;;;;2.14;77.27;98286.56;5122036;27;20402;-72
2021/01/02 13:40:14;;;;;;;15.98;10.40;;;;;;;2.16;75.55;98287.44;5121509;28;20046;-72
2021/01/02 13:42:39;;;;;;;17.35;10.65;;;;;;;2.27;75.82;98288.38;5121626;27;20026;-73
2021/01/02 13:45:06;;;;;;;19.45;11.80;;;;;;;2.34;75.34;98284.16;5120218;28;20122;-73
2021/01/02 13:47:32;;;;;;;18.45;11.15;;;;;;;2.36;74.48;98291.81;5121177;28;20494;-73
2021/01/02 13:49:57;;;;;;;15.63;10.50;;;;;;;1.98;75.24;98289.84;5121394;27;20039;-72
2021/01/02 13:52:23;;;;;;;17.33;10.52;;;;;;;1.77;76.47;98283.72;5120975;27;20027;-73
2021/01/02 13:54:50;;;;;;;14.60;9.43;;;;;;;1.91;76.33;98282.97;5121261;28;20032;-71
2021/01/02 13:57:16;;;;;;;17.75;11.38;;;;;;;1.83;75.07;98274.38;5120935;28;20069;-74
2021/01/02 13:59:46;;;;;;;21.30;12.25;;;;;;;1.88;76.47;98288.06;5121391;28;20036;-74
2021/01/02 14:02:11;;;;;;;13.98;9.90;;;;;;;1.86;76.84;98284.63;5120522;28;20031;-74
2021/01/02 14:04:37;;;;;;;15.93;10.10;;;;;;;1.97;75.43;98300.91;5120952;27;20550;-74
2021/01/02 14:07:03;;;;;;;15.75;9.85;;;;;;;2.01;76.06;98298.38;5120825;28;20026;-74
2021/01/02 14:09:28;;;;;;;17.17;11.88;;;;;;;1.70;75.75;98298.97;5120738;27;20035;-74
2021/01/02 14:11:58;;;;;;;14.52;10.20;;;;;;;1.62;75.66;98296.34;5119223;27;20020;-74
2021/01/02 14:14:24;;;;;;;17.80;10.60;;;;;;;1.70;75.94;98298.97;5120282;27;20448;-75
2021/01/02 14:16:54;;;;;;;17.95;10.23;;;;;;;1.79;75.62;98304.16;5121034;27;20095;-74
2021/01/02 14:19:21;;;;;;;19.50;10.88;;;;;;;1.83;77.05;98305.03;5120033;27;20110;-74
2021/01/02 14:21:49;;;;;;;18.17;10.82;;;;;;;1.83;76.55;98305.03;5120467;28;20031;-74
2021/01/02 14:24:15;;;;;;;19.73;11.25;;;;;;;1.79;76.99;98297.38;5120518;28;20113;-74
2021/01/02 14:26:40;;;;;;;16.88;10.25;;;;;;;1.71;76.62;98295.56;5119327;28;20064;-74
2021/01/02 14:29:06;;;;;;;16.35;11.07;;;;;;;1.68;76.50;98291.28;5119993;27;20511;-74
2021/01/02 14:31:36;;;;;;;18.67;11.05;;;;;;;1.69;79.35;98287.91;5120170;28;20064;-74
2021/01/02 14:34:04;;;;;;;16.38;10.13;;;;;;;1.86;77.75;98284.63;5120513;28;20452;-74
2021/01/02 14:36:30;;;;;;;17.80;11.57;;;;;;;1.53;78.08;98291.13;5120336;28;20399;-74
2021/01/02 14:38:58;;;;;;;28.63;16.38;;;;;;;1.67;77.86;98288.72;5120314;27;20035;-74
2021/01/02 14:41:23;;;;;;;17.08;10.77;;;;;;;1.79;77.07;98288.84;5114281;28;20114;-74
2021/01/02 14:43:49;;;;;;;17.73;11.18;;;;;;;1.40;78.55;98281.63;5120310;28;20046;-74
2021/01/02 14:46:15;;;;;;;18.92;12.35;;;;;;;1.67;78.39;98273.41;5120069;28;20024;-74
2021/01/02 14:48:41;;;;;;;16.85;11.40;;;;;;;1.69;78.48;98275.16;5109534;28;20030;-69
2021/01/02 14:51:06;;;;;;;20.67;12.40;;;;;;;1.73;78.98;98274.31;5106357;28;20469;-76
2021/01/02 14:53:32;;;;;;;20.10;12.75;;;;;;;1.71;77.97;98275.16;5106500;28;20034;-75
2021/01/02 14:55:57;;;;;;;21.25;12.43;;;;;;;1.69;78.87;98267.47;5107149;28;20023;-76
2021/01/02 14:58:22;;;;;;;16.65;12.15;;;;;;;1.74;78.73;98270.94;5106324;28;20027;-74
2021/01/02 15:00:48;;;;;;;18.52;11.77;;;;;;;1.73;78.44;98274.31;5105771;28;20027;-74
2021/01/02 15:03:14;;;;;;;17.67;11.40;;;;;;;1.84;78.70;98273.53;5106056;28;20030;-75
2021/01/02 15:05:39;;;;;;;16.67;11.23;;;;;;;1.75;76.52;98267.53;5100200;28;20046;-74
2021/01/02 15:08:05;;;;;;;18.23;11.57;;;;;;;1.62;80.55;98275.06;5106153;28;20036;-74
2021/01/02 15:10:31;;;;;;;19.15;11.88;;;;;;;1.66;79.58;98287.88;5106105;28;20043;-74
2021/01/02 15:12:56;;;;;;;17.13;10.82;;;;;;;1.66;79.23;98275.09;5105919;28;20112;-74
2021/01/02 15:15:23;;;;;;;19.27;11.45;;;;;;;1.67;80.37;98271.69;5105929;28;20031;-78
2021/01/02 15:17:48;;;;;;;20.40;12.13;;;;;;;1.49;79.27;98274.06;5093987;28;20090;-75
2021/01/02 15:20:14;;;;;;;17.88;12.15;;;;;;;1.55;79.01;98271.59;5106032;28;20088;-74
2021/01/02 15:22:39;;;;;;;48.03;20.88;;;;;;;1.59;79.16;98270.75;5105887;28;20152;-75
2021/01/02 15:25:07;;;;;;;50.08;24.92;;;;;;;1.66;79.77;98275.09;5106091;28;20182;-74
2021/01/02 15:27:33;;;;;;;24.23;14.32;;;;;;;1.80;78.90;98270.97;5105843;28;20034;-75
2021/01/02 15:29:58;;;;;;;43.72;24.77;;;;;;;1.59;78.48;98275.88;5099325;28;20975;-74
2021/01/02 15:32:24;;;;;;;30.40;18.08;;;;;;;1.54;79.16;98280.06;5105624;28;20032;-74
2021/01/02 15:34:50;;;;;;;21.00;12.80;;;;;;;1.85;78.52;98275.28;5105714;28;20027;-74
2021/01/02 15:37:15;;;;;;;22.05;16.25;;;;;;;1.55;78.95;98269.06;5105610;28;20525;-74
2021/01/02 15:39:43;;;;;;;18.60;12.32;;;;;;;1.60;79.03;98276.75;5105674;28;20027;-74
2021/01/02 15:42:10;;;;;;;17.52;11.93;;;;;;;1.62;78.43;98275.91;5105629;28;20055;-74
2021/01/02 15:44:35;;;;;;;19.42;12.50;;;;;;;1.55;78.88;98271.59;5105418;28;20027;-74
2021/01/02 15:47:21;;;;;;;21.17;12.23;;;;;;;1.48;79.93;98268.13;5105610;28;20019;-74
2021/01/02 15:49:47;;;;;;;23.60;13.95;;;;;;;1.44;78.58;98266.38;5105364;28;20039;-74
2021/01/02 15:52:20;;;;;;;21.33;12.90;;;;;;;1.49;78.73;98258.75;5120145;27;20028;-74
2021/01/02 15:54:49;;;;;;;30.67;18.23;;;;;;;1.46;78.95;98263.84;5105368;28;20136;-75
2021/01/02 15:57:15;;;;;;;25.33;13.20;;;;;;;1.50;78.46;98260.50;5098975;28;20028;-74
2021/01/02 15:59:40;;;;;;;23.60;14.32;;;;;;;1.49;79.11;98253.66;5104337;28;20412;-75
2021/01/02 16:02:07;;;;;;;38.42;20.35;;;;;;;1.46;79.09;98259.59;5105065;28;20032;-74
2021/01/02 16:04:32;;;;;;;23.88;14.55;;;;;;;1.49;79.66;98258.75;5105149;28;20028;-75
2021/01/02 16:07:04;;;;;;;24.75;15.00;;;;;;;1.71;79.95;98263.22;5105208;28;20048;-75
2021/01/02 16:09:30;;;;;;;23.63;14.55;;;;;;;1.59;79.14;98264.81;5105142;28;20486;-74
2021/01/02 16:11:57;;;;;;;22.65;15.02;;;;;;;1.57;79.79;98257.16;5104837;28;20072;-75
2021/01/02 16:14:23;;;;;;;22.13;13.13;;;;;;;1.52;80.48;98262.22;5104998;28;20054;-75
2021/01/02 16:16:49;;;;;;;28.65;17.95;;;;;;;1.52;80.32;98254.53;5104880;28;21321;-75
2021/01/02 16:19:18;;;;;;;27.83;15.98;;;;;;;1.60;79.26;98259.75;5104847;28;20036;-74
2021/01/02 16:21:46;;;;;;;24.42;15.93;;;;;;;1.53;79.80;98255.41;5104531;28;20062;-74
2021/01/02 16:24:14;;;;;;;20.90;12.45;;;;;;;1.51;79.03;98268.16;5104940;28;20403;-75
2021/01/02 16:26:44;;;;;;;23.02;13.90;;;;;;;1.50;79.40;98270.72;5104815;28;20024;-75
2021/01/02 16:29:12;;;;;;;;;;;;;;;1.49;78.69;98268.97;5105189;28;20023;-75
2021/01/02 16:31:52;;;;;;;22.48;13.23;;;;;;;1.48;79.52;98257.91;5104399;28;19972;-75
2021/01/02 16:34:30;;;;;;;22.35;15.85;;;;;;;1.30;79.48;98257.72;5104752;28;21416;-74
2021/01/02 16:37:05;;;;;;;23.65;14.38;;;;;;;1.40;79.36;98248.47;5104568;28;20284;-75
2021/01/02 16:39:31;;;;;;;20.88;14.10;;;;;;;1.50;80.69;98245.19;5104369;28;20027;-74
2021/01/02 16:41:58;;;;;;;26.13;16.88;;;;;;;1.45;77.21;98246.81;5104299;28;20035;-75
2021/01/02 16:44:24;;;;;;;16.48;11.35;;;;;;;1.64;78.89;98238.47;5104209;28;20114;-74
2021/01/02 16:46:53;;;;;;;20.60;12.20;;;;;;;1.62;78.15;98245.28;5104561;28;20039;-74
2021/01/02 16:49:18;;;;;;;15.88;11.52;;;;;;;1.74;76.85;98250.50;5104188;28;20023;-75
2021/01/02 16:51:44;;;;;;;17.83;10.75;;;;;;;1.85;75.87;98247.19;5104122;28;20027;-76
2021/01/02 16:54:09;;;;;;;17.48;10.88;;;;;;;1.64;75.61;98238.47;5105071;28;20428;-76
2021/01/02 16:56:34;;;;;;;18.02;11.32;;;;;;;1.54;75.62;98245.19;5106873;28;20110;-76
2021/01/02 16:59:00;;;;;;;21.75;13.57;;;;;;;1.50;76.05;98240.06;5104872;28;20027;-75
2021/01/02 17:01:26;;;;;;;18.90;12.15;;;;;;;1.50;76.54;98245.19;5103830;28;20488;-74
2021/01/02 17:03:54;;;;;;;24.92;14.15;;;;;;;1.45;76.46;98241.69;5104157;28;20407;-74
2021/01/02 17:06:29;;;;;;;31.48;16.85;;;;;;;1.54;77.64;98241.78;5104036;28;20019;-75
2021/01/02 17:08:57;;;;;;;20.42;12.43;;;;;;;1.48;76.54;98244.28;5104003;28;20027;-75
2021/01/02 17:11:31;;;;;;;18.70;12.15;;;;;;;1.53;76.37;98234.97;5103484;28;20154;-75
2021/01/02 17:13:57;;;;;;;17.83;11.85;;;;;;;1.52;76.91;98243.47;5104065;28;20063;-75
2021/01/02 17:16:34;;;;;;;22.98;13.75;;;;;;;1.61;78.67;98237.59;5079114;27;20040;-75
2021/01/02 17:19:00;;;;;;;23.25;14.40;;;;;;;1.58;76.87;98243.53;5078782;28;20476;-75
2021/01/02 17:21:28;;;;;;;51.17;28.50;;;;;;;1.64;78.81;98233.38;5082299;28;20024;-76
2021/01/02 17:23:54;;;;;;;43.80;26.58;;;;;;;1.48;78.03;98234.94;5082526;28;20039;-75
2021/01/02 17:26:25;;;;;;;69.13;37.25;;;;;;;1.39;78.13;98228.88;5076711;28;20492;-75
2021/01/02 17:28:52;;;;;;;20.27;14.40;;;;;;;1.27;79.53;98237.28;5080698;28;20591;-75
2021/01/02 17:31:18;;;;;;;17.83;12.68;;;;;;;1.26;79.86;98233.03;5083300;28;20512;-75
2021/01/02 17:33:45;;;;;;;47.63;29.73;;;;;;;1.25;80.24;98229.59;5077023;28;20032;-75
2021/01/02 17:36:21;;;;;;;22.25;14.43;;;;;;;1.23;79.87;98226.19;5076806;28;20482;-75
2021/01/02 17:38:51;;;;;;;23.40;14.43;;;;;;;1.22;79.67;98229.59;5077071;28;20032;-75
2021/01/02 17:41:25;;;;;;;35.97;19.80;;;;;;;1.31;79.32;98227.97;5079702;28;20020;-76
2021/01/02 17:43:51;;;;;;;38.90;22.80;;;;;;;1.24;80.82;98229.59;5076908;28;20569;-75
2021/01/02 17:46:26;;;;;;;33.88;19.05;;;;;;;1.31;82.08;98230.53;5076949;28;20028;-75
2021/01/02 17:48:52;;;;;;;26.13;16.63;;;;;;;1.32;79.83;98237.34;5083158;28;20120;-75
2021/01/02 17:51:18;;;;;;;23.63;16.30;;;;;;;1.27;78.53;98227.09;5079724;28;20707;-75
2021/01/02 17:53:45;;;;;;;27.42;15.45;;;;;;;1.37;79.53;98225.47;5083202;28;20492;-75
2021/01/02 17:56:11;;;;;;;19.50;12.55;;;;;;;1.36;78.76;98232.28;5076777;28;20085;-75
2021/01/02 17:58:37;;;;;;;23.20;15.15;;;;;;;1.47;80.88;98238.34;5083151;28;20119;-75
2021/01/02 18:01:04;;;;;;;33.88;18.42;;;;;;;1.43;78.80;98228.94;5078813;28;20048;-75
2021/01/02 18:03:29;;;;;;;34.28;19.13;;;;;;;1.47;79.47;98227.28;5082894;28;20040;-75
2021/01/02 18:05:54;;;;;;;110.25;41.00;;;;;;;1.47;79.65;98225.56;5083117;28;20050;-75
2021/01/02 18:08:19;;;;;;;46.35;22.65;;;;;;;1.41;78.75;98224.66;5076713;28;20080;-76
2021/01/02 18:10:45;;;;;;;31.35;16.55;;;;;;;1.45;78.37;98226.38;5075932;28;21255;-75
2021/01/02 18:13:10;;;;;;;22.25;13.88;;;;;;;1.44;77.08;98233.19;5076623;28;20093;-75
2021/01/02 18:15:39;;;;;;;20.48;13.60;;;;;;;1.42;77.35;98239.13;5098568;28;20434;-75
2021/01/02 18:18:05;;;;;;;25.63;15.13;;;;;;;1.42;77.61;98236.59;5082812;28;20032;-75
2021/01/02 18:20:30;;;;;;;18.70;12.82;;;;;;;1.44;77.48;98245.09;5081845;28;20406;-75
2021/01/02 18:22:55;;;;;;;23.60;14.27;;;;;;;1.42;77.65;98236.59;5080446;28;20027;-76
2021/01/02 18:25:21;;;;;;;25.98;15.40;;;;;;;1.51;79.37;98239.22;5086857;28;20032;-75
2021/01/02 18:27:46;;;;;;;19.95;13.98;;;;;;;1.50;78.21;98240.06;5080243;28;20070;-75
2021/01/02 18:30:13;;;;;;;21.15;13.82;;;;;;;1.46;78.21;98253.66;5086758;28;20571;-75